sensor_id;sensor_type;location;lat;lon;timestamp;P1;durP1;ratioP1;P2;durP2;ratioP2
32633;SDS011;19043;51.012;5.648;2022-12-07T00:00:12;26.88;;;18.77;;
32633;SDS011;19043;51.012;5.648;2022-12-07T00:02:37;22.55;;;17.17;;
32633;SDS011;19043;51.012;5.648;2022-12-07T00:05:02;22.55;;;16.75;;
32633;SDS011;19043;51.012;5.648;2022-12-07T00:07:28;23.80;;;17.67;;
32633;SDS011;19043;51.012;5.648;2022-12-07T00:09:53;22.90;;;18.70;;
32633;SDS011;19043;51.012;5.648;2022-12-07T00:12:18;24.27;;;18.85;;
32633;SDS011;19043;51.012;5.648;2022-12-07T00:14:43;28.98;;;21.17;;
32633;SDS011;19043;51.012;5.648;2022-12-07T00:17:08;29.92;;;18.70;;
32633;SDS011;19043;51.012;5.648;2022-12-07T00:19:34;28.83;;;20.83;;
32633;SDS011;19043;51.012;5.648;2022-12-07T00:21:59;28.80;;;21.42;;
32633;SDS011;19043;51.012;5.648;2022-12-07T00:24:24;27.30;;;21.48;;
32633;SDS011;19043;51.012;5.648;2022-12-07T00:26:49;29.20;;;22.10;;
32633;SDS011;19043;51.012;5.648;2022-12-07T00:29:16;30.27;;;22.85;;
32633;SDS011;19043;51.012;5.648;2022-12-07T00:31:41;30.20;;;24.60;;
32633;SDS011;19043;51.012;5.648;2022-12-07T00:34:09;35.88;;;25.35;;
32633;SDS011;19043;51.012;5.648;2022-12-07T00:36:36;31.83;;;26.10;;
32633;SDS011;19043;51.012;5.648;2022-12-07T00:39:01;36.17;;;27.33;;
32633;SDS011;19043;51.012;5.648;2022-12-07T00:41:27;41.67;;;27.75;;
32633;SDS011;19043;51.012;5.648;2022-12-07T00:43:53;40.33;;;29.45;;
32633;SDS011;19043;51.012;5.648;2022-12-07T00:46:19;40.35;;;30.38;;
32633;SDS011;19043;51.012;5.648;2022-12-07T00:48:45;36.03;;;28.42;;
32633;SDS011;19043;51.012;5.648;2022-12-07T00:51:11;34.53;;;29.80;;
32633;SDS011;19043;51.012;5.648;2022-12-07T00:53:36;41.10;;;31.13;;
32633;SDS011;19043;51.012;5.648;2022-12-07T00:56:24;37.92;;;30.42;;
32633;SDS011;19043;51.012;5.648;2022-12-07T00:58:55;45.53;;;34.40;;
32633;SDS011;19043;51.012;5.648;2022-12-07T01:01:21;46.53;;;34.07;;
32633;SDS011;19043;51.012;5.648;2022-12-07T01:03:46;47.78;;;36.30;;
32633;SDS011;19043;51.012;5.648;2022-12-07T01:06:13;43.10;;;36.83;;
32633;SDS011;19043;51.012;5.648;2022-12-07T01:08:39;55.80;;;38.85;;
32633;SDS011;19043;51.012;5.648;2022-12-07T01:11:05;51.20;;;38.53;;
32633;SDS011;19043;51.012;5.648;2022-12-07T01:13:32;55.50;;;37.75;;
32633;SDS011;19043;51.012;5.648;2022-12-07T01:15:58;52.40;;;35.20;;
32633;SDS011;19043;51.012;5.648;2022-12-07T01:18:25;47.42;;;37.13;;
32633;SDS011;19043;51.012;5.648;2022-12-07T01:21:33;49.75;;;35.35;;
32633;SDS011;19043;51.012;5.648;2022-12-07T01:23:39;47.10;;;37.35;;
32633;SDS011;19043;51.012;5.648;2022-12-07T01:26:05;51.70;;;38.38;;
32633;SDS011;19043;51.012;5.648;2022-12-07T01:28:31;50.63;;;39.13;;
32633;SDS011;19043;51.012;5.648;2022-12-07T01:31:00;48.58;;;38.28;;
32633;SDS011;19043;51.012;5.648;2022-12-07T01:33:26;52.67;;;38.65;;
32633;SDS011;19043;51.012;5.648;2022-12-07T01:35:51;51.38;;;38.13;;
32633;SDS011;19043;51.012;5.648;2022-12-07T01:38:17;52.47;;;42.08;;
32633;SDS011;19043;51.012;5.648;2022-12-07T01:40:42;47.25;;;37.20;;
32633;SDS011;19043;51.012;5.648;2022-12-07T01:43:14;55.83;;;41.08;;
32633;SDS011;19043;51.012;5.648;2022-12-07T01:45:41;47.28;;;37.88;;
32633;SDS011;19043;51.012;5.648;2022-12-07T01:48:07;51.17;;;40.17;;
32633;SDS011;19043;51.012;5.648;2022-12-07T01:50:33;51.85;;;39.13;;
32633;SDS011;19043;51.012;5.648;2022-12-07T01:52:58;50.30;;;39.75;;
32633;SDS011;19043;51.012;5.648;2022-12-07T01:55:25;46.47;;;37.45;;
32633;SDS011;19043;51.012;5.648;2022-12-07T01:57:51;49.30;;;38.08;;
32633;SDS011;19043;51.012;5.648;2022-12-07T02:00:17;47.17;;;37.22;;
32633;SDS011;19043;51.012;5.648;2022-12-07T02:02:47;47.75;;;35.53;;
32633;SDS011;19043;51.012;5.648;2022-12-07T02:05:14;46.92;;;37.72;;
32633;SDS011;19043;51.012;5.648;2022-12-07T02:07:40;42.45;;;37.30;;
32633;SDS011;19043;51.012;5.648;2022-12-07T02:10:19;42.30;;;34.78;;
32633;SDS011;19043;51.012;5.648;2022-12-07T02:12:46;45.78;;;35.03;;
32633;SDS011;19043;51.012;5.648;2022-12-07T02:15:12;49.83;;;35.15;;
32633;SDS011;19043;51.012;5.648;2022-12-07T02:28:29;48.63;;;36.95;;
32633;SDS011;19043;51.012;5.648;2022-12-07T02:30:57;50.78;;;36.10;;
32633;SDS011;19043;51.012;5.648;2022-12-07T02:33:31;42.42;;;34.78;;
32633;SDS011;19043;51.012;5.648;2022-12-07T02:36:03;43.05;;;34.58;;
32633;SDS011;19043;51.012;5.648;2022-12-07T02:38:37;42.22;;;35.30;;
32633;SDS011;19043;51.012;5.648;2022-12-07T02:41:11;46.22;;;35.17;;
32633;SDS011;19043;51.012;5.648;2022-12-07T02:46:09;42.72;;;33.75;;
32633;SDS011;19043;51.012;5.648;2022-12-07T02:48:35;49.00;;;34.58;;
32633;SDS011;19043;51.012;5.648;2022-12-07T02:51:02;45.13;;;34.97;;
32633;SDS011;19043;51.012;5.648;2022-12-07T02:53:37;47.47;;;33.90;;
32633;SDS011;19043;51.012;5.648;2022-12-07T03:01:15;44.88;;;36.30;;
32633;SDS011;19043;51.012;5.648;2022-12-07T03:03:47;47.58;;;37.70;;
32633;SDS011;19043;51.012;5.648;2022-12-07T03:06:20;48.28;;;36.42;;
32633;SDS011;19043;51.012;5.648;2022-12-07T03:11:25;48.63;;;38.00;;
32633;SDS011;19043;51.012;5.648;2022-12-07T03:14:00;48.55;;;38.65;;
32633;SDS011;19043;51.012;5.648;2022-12-07T03:16:40;49.15;;;38.28;;
32633;SDS011;19043;51.012;5.648;2022-12-07T03:19:10;55.05;;;39.80;;
32633;SDS011;19043;51.012;5.648;2022-12-07T03:21:53;48.88;;;38.05;;
32633;SDS011;19043;51.012;5.648;2022-12-07T03:24:21;57.47;;;39.47;;
32633;SDS011;19043;51.012;5.648;2022-12-07T03:26:48;54.22;;;39.78;;
32633;SDS011;19043;51.012;5.648;2022-12-07T03:29:18;54.20;;;41.75;;
32633;SDS011;19043;51.012;5.648;2022-12-07T03:31:46;56.28;;;43.67;;
32633;SDS011;19043;51.012;5.648;2022-12-07T03:34:14;51.83;;;43.35;;
32633;SDS011;19043;51.012;5.648;2022-12-07T03:41:39;51.80;;;40.55;;
32633;SDS011;19043;51.012;5.648;2022-12-07T03:44:04;57.97;;;42.15;;
32633;SDS011;19043;51.012;5.648;2022-12-07T03:46:44;52.60;;;41.63;;
32633;SDS011;19043;51.012;5.648;2022-12-07T03:49:23;55.90;;;39.75;;
32633;SDS011;19043;51.012;5.648;2022-12-07T03:54:41;52.25;;;39.63;;
32633;SDS011;19043;51.012;5.648;2022-12-07T03:57:04;56.75;;;40.00;;
32633;SDS011;19043;51.012;5.648;2022-12-07T03:59:30;62.65;;;39.10;;
32633;SDS011;19043;51.012;5.648;2022-12-07T04:01:56;49.70;;;38.10;;
32633;SDS011;19043;51.012;5.648;2022-12-07T04:04:23;54.35;;;38.67;;
32633;SDS011;19043;51.012;5.648;2022-12-07T04:06:49;47.58;;;38.05;;
32633;SDS011;19043;51.012;5.648;2022-12-07T04:09:14;50.17;;;37.25;;
32633;SDS011;19043;51.012;5.648;2022-12-07T04:11:40;47.95;;;37.63;;
32633;SDS011;19043;51.012;5.648;2022-12-07T04:14:05;46.03;;;37.25;;
32633;SDS011;19043;51.012;5.648;2022-12-07T04:16:46;38.35;;;33.33;;
32633;SDS011;19043;51.012;5.648;2022-12-07T04:19:12;43.78;;;35.85;;
32633;SDS011;19043;51.012;5.648;2022-12-07T04:21:37;46.50;;;34.13;;
32633;SDS011;19043;51.012;5.648;2022-12-07T04:24:03;42.17;;;32.97;;
32633;SDS011;19043;51.012;5.648;2022-12-07T04:26:28;46.42;;;35.60;;
32633;SDS011;19043;51.012;5.648;2022-12-07T04:28:54;46.83;;;34.60;;
32633;SDS011;19043;51.012;5.648;2022-12-07T04:31:19;42.40;;;32.60;;
32633;SDS011;19043;51.012;5.648;2022-12-07T04:33:44;38.38;;;32.60;;
32633;SDS011;19043;51.012;5.648;2022-12-07T04:36:09;48.80;;;35.13;;
32633;SDS011;19043;51.012;5.648;2022-12-07T04:38:35;46.05;;;36.75;;
32633;SDS011;19043;51.012;5.648;2022-12-07T04:41:04;50.30;;;36.22;;
32633;SDS011;19043;51.012;5.648;2022-12-07T04:43:29;41.20;;;34.45;;
32633;SDS011;19043;51.012;5.648;2022-12-07T04:45:54;48.80;;;35.97;;
32633;SDS011;19043;51.012;5.648;2022-12-07T04:48:19;48.40;;;36.33;;
32633;SDS011;19043;51.012;5.648;2022-12-07T04:50:47;51.35;;;35.72;;
32633;SDS011;19043;51.012;5.648;2022-12-07T04:53:12;42.08;;;34.13;;
32633;SDS011;19043;51.012;5.648;2022-12-07T04:55:38;44.83;;;34.53;;
32633;SDS011;19043;51.012;5.648;2022-12-07T04:58:03;43.97;;;34.85;;
32633;SDS011;19043;51.012;5.648;2022-12-07T05:00:28;52.63;;;36.90;;
32633;SDS011;19043;51.012;5.648;2022-12-07T05:02:53;45.55;;;35.50;;
32633;SDS011;19043;51.012;5.648;2022-12-07T05:05:19;49.95;;;38.20;;
32633;SDS011;19043;51.012;5.648;2022-12-07T05:07:44;53.08;;;38.88;;
32633;SDS011;19043;51.012;5.648;2022-12-07T05:10:09;52.70;;;37.92;;
32633;SDS011;19043;51.012;5.648;2022-12-07T05:12:34;47.88;;;39.13;;
32633;SDS011;19043;51.012;5.648;2022-12-07T05:15:00;53.33;;;39.40;;
32633;SDS011;19043;51.012;5.648;2022-12-07T05:17:25;60.85;;;41.30;;
32633;SDS011;19043;51.012;5.648;2022-12-07T05:19:50;52.28;;;38.13;;
32633;SDS011;19043;51.012;5.648;2022-12-07T05:22:15;57.45;;;39.70;;
32633;SDS011;19043;51.012;5.648;2022-12-07T05:24:41;58.10;;;43.25;;
32633;SDS011;19043;51.012;5.648;2022-12-07T05:27:06;80.90;;;59.08;;
32633;SDS011;19043;51.012;5.648;2022-12-07T05:29:31;64.60;;;46.92;;
32633;SDS011;19043;51.012;5.648;2022-12-07T05:31:56;60.38;;;45.58;;
32633;SDS011;19043;51.012;5.648;2022-12-07T05:34:22;55.60;;;43.78;;
32633;SDS011;19043;51.012;5.648;2022-12-07T05:36:47;58.35;;;42.30;;
32633;SDS011;19043;51.012;5.648;2022-12-07T05:39:12;60.45;;;44.22;;
32633;SDS011;19043;51.012;5.648;2022-12-07T05:41:37;57.58;;;44.05;;
32633;SDS011;19043;51.012;5.648;2022-12-07T05:44:21;58.17;;;44.37;;
32633;SDS011;19043;51.012;5.648;2022-12-07T05:46:46;58.28;;;43.83;;
32633;SDS011;19043;51.012;5.648;2022-12-07T05:49:12;57.63;;;43.97;;
32633;SDS011;19043;51.012;5.648;2022-12-07T05:51:37;59.75;;;47.42;;
32633;SDS011;19043;51.012;5.648;2022-12-07T05:54:02;51.20;;;43.33;;
32633;SDS011;19043;51.012;5.648;2022-12-07T05:56:27;57.13;;;44.28;;
32633;SDS011;19043;51.012;5.648;2022-12-07T05:58:53;62.58;;;45.38;;
32633;SDS011;19043;51.012;5.648;2022-12-07T06:01:37;58.10;;;43.42;;
32633;SDS011;19043;51.012;5.648;2022-12-07T06:04:02;66.63;;;44.38;;
32633;SDS011;19043;51.012;5.648;2022-12-07T06:06:28;62.70;;;45.20;;
32633;SDS011;19043;51.012;5.648;2022-12-07T06:08:53;64.63;;;45.50;;
32633;SDS011;19043;51.012;5.648;2022-12-07T06:11:18;58.42;;;45.47;;
32633;SDS011;19043;51.012;5.648;2022-12-07T06:14:02;63.47;;;45.53;;
32633;SDS011;19043;51.012;5.648;2022-12-07T06:16:27;60.10;;;44.58;;
32633;SDS011;19043;51.012;5.648;2022-12-07T06:18:53;60.45;;;46.92;;
32633;SDS011;19043;51.012;5.648;2022-12-07T06:21:18;57.97;;;45.22;;
32633;SDS011;19043;51.012;5.648;2022-12-07T06:23:44;73.70;;;49.55;;
32633;SDS011;19043;51.012;5.648;2022-12-07T06:26:09;68.40;;;47.30;;
32633;SDS011;19043;51.012;5.648;2022-12-07T06:28:34;61.22;;;45.33;;
32633;SDS011;19043;51.012;5.648;2022-12-07T06:31:00;64.13;;;45.58;;
32633;SDS011;19043;51.012;5.648;2022-12-07T06:33:26;67.38;;;47.88;;
32633;SDS011;19043;51.012;5.648;2022-12-07T06:35:51;66.38;;;46.70;;
32633;SDS011;19043;51.012;5.648;2022-12-07T06:38:16;60.38;;;43.97;;
32633;SDS011;19043;51.012;5.648;2022-12-07T06:40:42;57.72;;;43.85;;
32633;SDS011;19043;51.012;5.648;2022-12-07T06:43:07;61.92;;;43.80;;
32633;SDS011;19043;51.012;5.648;2022-12-07T06:45:32;55.60;;;42.75;;
32633;SDS011;19043;51.012;5.648;2022-12-07T06:47:58;56.38;;;40.45;;
32633;SDS011;19043;51.012;5.648;2022-12-07T06:50:23;61.72;;;43.72;;
32633;SDS011;19043;51.012;5.648;2022-12-07T06:52:48;59.05;;;43.83;;
32633;SDS011;19043;51.012;5.648;2022-12-07T06:55:13;63.05;;;41.30;;
32633;SDS011;19043;51.012;5.648;2022-12-07T06:57:39;64.40;;;40.60;;
32633;SDS011;19043;51.012;5.648;2022-12-07T07:00:04;56.42;;;41.55;;
32633;SDS011;19043;51.012;5.648;2022-12-07T07:02:30;63.30;;;42.13;;
32633;SDS011;19043;51.012;5.648;2022-12-07T07:04:55;63.95;;;42.92;;
32633;SDS011;19043;51.012;5.648;2022-12-07T07:07:20;60.75;;;42.10;;
32633;SDS011;19043;51.012;5.648;2022-12-07T07:09:45;57.92;;;44.63;;
32633;SDS011;19043;51.012;5.648;2022-12-07T07:12:10;69.43;;;44.75;;
32633;SDS011;19043;51.012;5.648;2022-12-07T07:14:36;60.15;;;44.38;;
32633;SDS011;19043;51.012;5.648;2022-12-07T07:17:01;57.03;;;42.80;;
32633;SDS011;19043;51.012;5.648;2022-12-07T07:19:26;60.72;;;45.17;;
32633;SDS011;19043;51.012;5.648;2022-12-07T07:21:52;59.10;;;44.17;;
32633;SDS011;19043;51.012;5.648;2022-12-07T07:24:17;65.80;;;46.00;;
32633;SDS011;19043;51.012;5.648;2022-12-07T07:26:42;56.67;;;44.00;;
32633;SDS011;19043;51.012;5.648;2022-12-07T07:29:07;61.50;;;42.95;;
32633;SDS011;19043;51.012;5.648;2022-12-07T07:31:33;67.55;;;43.90;;
32633;SDS011;19043;51.012;5.648;2022-12-07T07:34:00;59.95;;;44.35;;
32633;SDS011;19043;51.012;5.648;2022-12-07T07:36:25;56.35;;;43.72;;
32633;SDS011;19043;51.012;5.648;2022-12-07T07:38:51;64.35;;;44.28;;
32633;SDS011;19043;51.012;5.648;2022-12-07T07:41:16;57.42;;;43.28;;
32633;SDS011;19043;51.012;5.648;2022-12-07T07:43:41;68.82;;;46.10;;
32633;SDS011;19043;51.012;5.648;2022-12-07T07:46:06;66.50;;;45.50;;
32633;SDS011;19043;51.012;5.648;2022-12-07T07:48:31;72.78;;;45.95;;
32633;SDS011;19043;51.012;5.648;2022-12-07T07:50:57;60.83;;;45.53;;
32633;SDS011;19043;51.012;5.648;2022-12-07T07:53:22;63.50;;;45.92;;
32633;SDS011;19043;51.012;5.648;2022-12-07T07:55:51;54.28;;;41.75;;
32633;SDS011;19043;51.012;5.648;2022-12-07T07:58:17;89.93;;;49.38;;
32633;SDS011;19043;51.012;5.648;2022-12-07T08:00:42;115.75;;;52.35;;
32633;SDS011;19043;51.012;5.648;2022-12-07T08:03:08;62.15;;;46.83;;
32633;SDS011;19043;51.012;5.648;2022-12-07T08:05:33;68.05;;;45.60;;
32633;SDS011;19043;51.012;5.648;2022-12-07T08:07:58;60.15;;;45.92;;
32633;SDS011;19043;51.012;5.648;2022-12-07T08:10:23;64.63;;;45.85;;
32633;SDS011;19043;51.012;5.648;2022-12-07T08:12:48;59.42;;;43.67;;
32633;SDS011;19043;51.012;5.648;2022-12-07T08:15:32;59.07;;;44.20;;
32633;SDS011;19043;51.012;5.648;2022-12-07T08:17:58;76.93;;;45.78;;
32633;SDS011;19043;51.012;5.648;2022-12-07T08:20:23;60.97;;;43.95;;
32633;SDS011;19043;51.012;5.648;2022-12-07T08:22:48;70.80;;;45.55;;
32633;SDS011;19043;51.012;5.648;2022-12-07T08:25:14;66.75;;;45.55;;
32633;SDS011;19043;51.012;5.648;2022-12-07T08:27:39;64.88;;;47.20;;
32633;SDS011;19043;51.012;5.648;2022-12-07T08:30:04;61.38;;;44.42;;
32633;SDS011;19043;51.012;5.648;2022-12-07T08:32:30;67.80;;;47.63;;
32633;SDS011;19043;51.012;5.648;2022-12-07T08:34:55;71.15;;;48.03;;
32633;SDS011;19043;51.012;5.648;2022-12-07T08:37:21;70.88;;;48.80;;
32633;SDS011;19043;51.012;5.648;2022-12-07T08:39:46;67.95;;;50.00;;
32633;SDS011;19043;51.012;5.648;2022-12-07T08:42:11;67.60;;;49.78;;
32633;SDS011;19043;51.012;5.648;2022-12-07T08:44:36;72.47;;;51.33;;
32633;SDS011;19043;51.012;5.648;2022-12-07T08:47:02;74.95;;;56.70;;
32633;SDS011;19043;51.012;5.648;2022-12-07T08:49:47;67.28;;;49.25;;
32633;SDS011;19043;51.012;5.648;2022-12-07T08:52:15;70.53;;;49.13;;
32633;SDS011;19043;51.012;5.648;2022-12-07T08:54:40;65.05;;;48.75;;
32633;SDS011;19043;51.012;5.648;2022-12-07T08:57:06;59.90;;;44.05;;
32633;SDS011;19043;51.012;5.648;2022-12-07T08:59:32;61.22;;;44.40;;
32633;SDS011;19043;51.012;5.648;2022-12-07T09:01:59;66.75;;;46.22;;
32633;SDS011;19043;51.012;5.648;2022-12-07T09:04:24;75.30;;;49.45;;
32633;SDS011;19043;51.012;5.648;2022-12-07T09:06:49;60.15;;;45.13;;
32633;SDS011;19043;51.012;5.648;2022-12-07T09:09:15;58.17;;;44.03;;
32633;SDS011;19043;51.012;5.648;2022-12-07T09:11:40;62.75;;;45.40;;
32633;SDS011;19043;51.012;5.648;2022-12-07T09:14:06;60.25;;;48.42;;
32633;SDS011;19043;51.012;5.648;2022-12-07T09:16:31;61.67;;;46.95;;
32633;SDS011;19043;51.012;5.648;2022-12-07T09:18:56;66.95;;;47.20;;
32633;SDS011;19043;51.012;5.648;2022-12-07T09:21:21;64.20;;;48.63;;
32633;SDS011;19043;51.012;5.648;2022-12-07T09:23:47;58.53;;;46.30;;
32633;SDS011;19043;51.012;5.648;2022-12-07T09:26:12;60.65;;;44.50;;
32633;SDS011;19043;51.012;5.648;2022-12-07T09:28:37;64.88;;;46.70;;
32633;SDS011;19043;51.012;5.648;2022-12-07T09:31:03;57.22;;;43.75;;
32633;SDS011;19043;51.012;5.648;2022-12-07T09:33:28;60.28;;;45.35;;
32633;SDS011;19043;51.012;5.648;2022-12-07T09:35:53;64.78;;;45.58;;
32633;SDS011;19043;51.012;5.648;2022-12-07T09:38:19;64.50;;;45.80;;
32633;SDS011;19043;51.012;5.648;2022-12-07T09:40:44;70.10;;;50.63;;
32633;SDS011;19043;51.012;5.648;2022-12-07T09:43:20;56.45;;;42.85;;
32633;SDS011;19043;51.012;5.648;2022-12-07T09:45:46;44.17;;;36.47;;
32633;SDS011;19043;51.012;5.648;2022-12-07T09:48:18;55.65;;;35.70;;
32633;SDS011;19043;51.012;5.648;2022-12-07T09:50:45;54.00;;;36.08;;
32633;SDS011;19043;51.012;5.648;2022-12-07T09:53:15;50.05;;;40.20;;
32633;SDS011;19043;51.012;5.648;2022-12-07T09:55:42;53.38;;;37.08;;
32633;SDS011;19043;51.012;5.648;2022-12-07T09:58:12;56.65;;;37.67;;
32633;SDS011;19043;51.012;5.648;2022-12-07T10:00:41;52.03;;;37.13;;
32633;SDS011;19043;51.012;5.648;2022-12-07T10:03:07;48.20;;;36.10;;
32633;SDS011;19043;51.012;5.648;2022-12-07T10:05:43;55.63;;;35.45;;
32633;SDS011;19043;51.012;5.648;2022-12-07T10:08:13;45.53;;;30.45;;
32633;SDS011;19043;51.012;5.648;2022-12-07T10:10:39;47.78;;;33.78;;
32633;SDS011;19043;51.012;5.648;2022-12-07T10:15:40;37.80;;;30.23;;
32633;SDS011;19043;51.012;5.648;2022-12-07T10:18:06;39.15;;;28.27;;
32633;SDS011;19043;51.012;5.648;2022-12-07T10:20:39;36.58;;;25.52;;
32633;SDS011;19043;51.012;5.648;2022-12-07T10:23:05;30.45;;;24.25;;
32633;SDS011;19043;51.012;5.648;2022-12-07T10:25:34;34.13;;;23.70;;
32633;SDS011;19043;51.012;5.648;2022-12-07T10:30:25;28.17;;;18.77;;
32633;SDS011;19043;51.012;5.648;2022-12-07T10:32:50;25.50;;;18.65;;
32633;SDS011;19043;51.012;5.648;2022-12-07T10:35:29;24.42;;;18.65;;
32633;SDS011;19043;51.012;5.648;2022-12-07T10:37:55;30.27;;;19.25;;
32633;SDS011;19043;51.012;5.648;2022-12-07T10:42:59;32.20;;;21.15;;
32633;SDS011;19043;51.012;5.648;2022-12-07T10:45:25;29.20;;;21.40;;
32633;SDS011;19043;51.012;5.648;2022-12-07T10:48:10;34.05;;;21.88;;
32633;SDS011;19043;51.012;5.648;2022-12-07T10:53:27;27.98;;;20.63;;
32633;SDS011;19043;51.012;5.648;2022-12-07T11:05:55;24.42;;;17.25;;
32633;SDS011;19043;51.012;5.648;2022-12-07T11:08:37;25.83;;;17.48;;
32633;SDS011;19043;51.012;5.648;2022-12-07T11:31:24;18.08;;;13.02;;
32633;SDS011;19043;51.012;5.648;2022-12-07T11:39:06;15.43;;;10.13;;
32633;SDS011;19043;51.012;5.648;2022-12-07T11:41:35;17.88;;;11.43;;
32633;SDS011;19043;51.012;5.648;2022-12-07T11:44:07;14.77;;;11.52;;
32633;SDS011;19043;51.012;5.648;2022-12-07T11:46:41;15.63;;;10.25;;
32633;SDS011;19043;51.012;5.648;2022-12-07T11:49:12;16.63;;;10.60;;
32633;SDS011;19043;51.012;5.648;2022-12-07T11:51:38;18.10;;;9.90;;
32633;SDS011;19043;51.012;5.648;2022-12-07T11:54:10;19.88;;;10.57;;
32633;SDS011;19043;51.012;5.648;2022-12-07T11:56:37;13.85;;;7.30;;
32633;SDS011;19043;51.012;5.648;2022-12-07T12:06:35;13.88;;;7.05;;
32633;SDS011;19043;51.012;5.648;2022-12-07T12:09:22;10.20;;;6.55;;
32633;SDS011;19043;51.012;5.648;2022-12-07T12:22:18;11.65;;;6.38;;
32633;SDS011;19043;51.012;5.648;2022-12-07T12:24:45;18.42;;;6.53;;
32633;SDS011;19043;51.012;5.648;2022-12-07T12:27:32;9.10;;;6.03;;
32633;SDS011;19043;51.012;5.648;2022-12-07T12:29:59;12.10;;;6.28;;
32633;SDS011;19043;51.012;5.648;2022-12-07T12:42:52;25.25;;;7.50;;
32633;SDS011;19043;51.012;5.648;2022-12-07T12:47:59;8.75;;;5.30;;
32633;SDS011;19043;51.012;5.648;2022-12-07T12:50:29;9.45;;;5.68;;
32633;SDS011;19043;51.012;5.648;2022-12-07T12:52:55;21.58;;;6.20;;
32633;SDS011;19043;51.012;5.648;2022-12-07T12:55:27;16.73;;;6.97;;
32633;SDS011;19043;51.012;5.648;2022-12-07T13:00:41;11.95;;;6.40;;
32633;SDS011;19043;51.012;5.648;2022-12-07T13:03:16;9.90;;;5.72;;
32633;SDS011;19043;51.012;5.648;2022-12-07T13:05:46;11.70;;;6.05;;
32633;SDS011;19043;51.012;5.648;2022-12-07T13:08:18;18.35;;;7.13;;
32633;SDS011;19043;51.012;5.648;2022-12-07T13:10:46;12.50;;;7.35;;
32633;SDS011;19043;51.012;5.648;2022-12-07T13:15:45;11.18;;;6.65;;
32633;SDS011;19043;51.012;5.648;2022-12-07T13:20:59;18.15;;;5.72;;
32633;SDS011;19043;51.012;5.648;2022-12-07T13:28:52;10.70;;;6.45;;
32633;SDS011;19043;51.012;5.648;2022-12-07T13:33:55;12.18;;;6.28;;
32633;SDS011;19043;51.012;5.648;2022-12-07T13:36:24;11.70;;;5.95;;
32633;SDS011;19043;51.012;5.648;2022-12-07T13:38:51;11.80;;;6.40;;
32633;SDS011;19043;51.012;5.648;2022-12-07T13:41:17;16.52;;;7.25;;
32633;SDS011;19043;51.012;5.648;2022-12-07T13:43:48;10.18;;;6.18;;
32633;SDS011;19043;51.012;5.648;2022-12-07T13:46:13;10.75;;;6.85;;
32633;SDS011;19043;51.012;5.648;2022-12-07T13:48:48;15.07;;;6.22;;
32633;SDS011;19043;51.012;5.648;2022-12-07T13:51:18;12.50;;;5.88;;
32633;SDS011;19043;51.012;5.648;2022-12-07T13:53:52;11.38;;;6.50;;
32633;SDS011;19043;51.012;5.648;2022-12-07T13:56:17;12.27;;;7.17;;
32633;SDS011;19043;51.012;5.648;2022-12-07T13:58:43;8.70;;;6.03;;
32633;SDS011;19043;51.012;5.648;2022-12-07T14:01:08;11.45;;;6.15;;
32633;SDS011;19043;51.012;5.648;2022-12-07T14:03:34;12.68;;;6.72;;
32633;SDS011;19043;51.012;5.648;2022-12-07T14:06:14;10.10;;;5.50;;
32633;SDS011;19043;51.012;5.648;2022-12-07T14:08:40;13.07;;;6.18;;
32633;SDS011;19043;51.012;5.648;2022-12-07T14:11:06;11.00;;;6.43;;
32633;SDS011;19043;51.012;5.648;2022-12-07T14:13:34;8.70;;;5.65;;
32633;SDS011;19043;51.012;5.648;2022-12-07T14:16:01;15.40;;;6.60;;
32633;SDS011;19043;51.012;5.648;2022-12-07T14:18:44;14.07;;;6.55;;
32633;SDS011;19043;51.012;5.648;2022-12-07T14:23:35;7.33;;;5.27;;
32633;SDS011;19043;51.012;5.648;2022-12-07T14:26:20;9.38;;;4.40;;
32633;SDS011;19043;51.012;5.648;2022-12-07T14:28:46;10.48;;;4.68;;
32633;SDS011;19043;51.012;5.648;2022-12-07T14:31:12;11.93;;;4.60;;
32633;SDS011;19043;51.012;5.648;2022-12-07T14:33:38;7.15;;;4.18;;
32633;SDS011;19043;51.012;5.648;2022-12-07T14:36:03;10.95;;;4.25;;
32633;SDS011;19043;51.012;5.648;2022-12-07T14:38:29;8.75;;;4.63;;
32633;SDS011;19043;51.012;5.648;2022-12-07T14:40:54;6.47;;;3.80;;
32633;SDS011;19043;51.012;5.648;2022-12-07T14:43:39;8.15;;;4.45;;
32633;SDS011;19043;51.012;5.648;2022-12-07T14:46:05;7.55;;;4.00;;
32633;SDS011;19043;51.012;5.648;2022-12-07T14:48:30;6.95;;;3.90;;
32633;SDS011;19043;51.012;5.648;2022-12-07T14:50:55;13.30;;;3.80;;
32633;SDS011;19043;51.012;5.648;2022-12-07T14:53:22;7.57;;;3.65;;
32633;SDS011;19043;51.012;5.648;2022-12-07T14:55:49;6.78;;;3.10;;
32633;SDS011;19043;51.012;5.648;2022-12-07T14:58:14;6.60;;;3.60;;
32633;SDS011;19043;51.012;5.648;2022-12-07T15:00:40;4.28;;;2.78;;
32633;SDS011;19043;51.012;5.648;2022-12-07T15:03:06;7.47;;;3.97;;
32633;SDS011;19043;51.012;5.648;2022-12-07T15:05:31;4.75;;;3.28;;
32633;SDS011;19043;51.012;5.648;2022-12-07T15:07:57;8.10;;;3.42;;
32633;SDS011;19043;51.012;5.648;2022-12-07T15:10:24;7.93;;;4.00;;
32633;SDS011;19043;51.012;5.648;2022-12-07T15:12:54;6.10;;;2.83;;
32633;SDS011;19043;51.012;5.648;2022-12-07T15:15:19;8.77;;;3.25;;
32633;SDS011;19043;51.012;5.648;2022-12-07T15:17:45;9.43;;;3.40;;
32633;SDS011;19043;51.012;5.648;2022-12-07T15:20:11;9.65;;;3.45;;
32633;SDS011;19043;51.012;5.648;2022-12-07T15:22:37;8.13;;;3.40;;
32633;SDS011;19043;51.012;5.648;2022-12-07T15:25:02;13.10;;;4.38;;
32633;SDS011;19043;51.012;5.648;2022-12-07T15:27:29;8.15;;;4.57;;
32633;SDS011;19043;51.012;5.648;2022-12-07T15:29:55;9.15;;;5.03;;
32633;SDS011;19043;51.012;5.648;2022-12-07T15:32:20;9.32;;;4.72;;
32633;SDS011;19043;51.012;5.648;2022-12-07T15:34:45;7.63;;;5.70;;
32633;SDS011;19043;51.012;5.648;2022-12-07T15:37:11;11.93;;;5.88;;
32633;SDS011;19043;51.012;5.648;2022-12-07T15:39:36;7.38;;;5.00;;
32633;SDS011;19043;51.012;5.648;2022-12-07T15:42:01;9.85;;;6.32;;
32633;SDS011;19043;51.012;5.648;2022-12-07T15:44:27;8.57;;;5.20;;
32633;SDS011;19043;51.012;5.648;2022-12-07T15:47:11;14.93;;;8.55;;
32633;SDS011;19043;51.012;5.648;2022-12-07T15:49:36;36.47;;;23.35;;
32633;SDS011;19043;51.012;5.648;2022-12-07T15:52:01;17.00;;;12.57;;
32633;SDS011;19043;51.012;5.648;2022-12-07T15:54:28;16.10;;;9.63;;
32633;SDS011;19043;51.012;5.648;2022-12-07T15:56:53;12.90;;;6.80;;
32633;SDS011;19043;51.012;5.648;2022-12-07T15:59:19;10.57;;;6.13;;
32633;SDS011;19043;51.012;5.648;2022-12-07T16:01:44;17.30;;;7.18;;
32633;SDS011;19043;51.012;5.648;2022-12-07T16:04:09;10.65;;;5.85;;
32633;SDS011;19043;51.012;5.648;2022-12-07T16:06:35;16.90;;;8.10;;
32633;SDS011;19043;51.012;5.648;2022-12-07T16:09:00;13.38;;;7.47;;
32633;SDS011;19043;51.012;5.648;2022-12-07T16:11:25;12.65;;;6.65;;
32633;SDS011;19043;51.012;5.648;2022-12-07T16:13:51;14.00;;;7.85;;
32633;SDS011;19043;51.012;5.648;2022-12-07T16:16:17;12.98;;;7.25;;
32633;SDS011;19043;51.012;5.648;2022-12-07T16:18:43;16.83;;;8.07;;
32633;SDS011;19043;51.012;5.648;2022-12-07T16:21:08;10.35;;;7.28;;
32633;SDS011;19043;51.012;5.648;2022-12-07T16:23:34;12.48;;;7.50;;
32633;SDS011;19043;51.012;5.648;2022-12-07T16:26:10;13.10;;;8.68;;
32633;SDS011;19043;51.012;5.648;2022-12-07T16:28:36;15.52;;;8.57;;
32633;SDS011;19043;51.012;5.648;2022-12-07T16:31:06;17.45;;;8.20;;